Time;durP1;ratioP1;P1;durP2;ratioP2;P2;SDS_P1;SDS_P2;PMS_P1;PMS_P2;Temp;Humidity;BMP_temperature;BMP_pressure;BME280_temperature;BME280_humidity;BME280_pressure;Samples;Min_cycle;Max_cycle;Signal;HPM_P1;HPM_P2
2022/07/21 00:00:25;;;;;;;;;;;;;;;34.15;27.27;101134.34;4425301;32;19985;-69
2022/07/21 00:02:51;;;;;;;;;;;;;;;34.42;27.12;101141.94;4426110;32;20368;-69
2022/07/21 00:05:16;;;;;;;;;;;;;;;34.21;27.28;101137.81;4425232;32;19965;-69
2022/07/21 00:07:42;;;;;;;;;;;;;;;34.04;27.58;101137.72;4424112;32;19953;-69
2022/07/21 00:10:08;;;;;;;;;;;;;;;33.89;27.64;101140.75;4426815;32;20022;-69
2022/07/21 00:12:34;;;;;;;;;;;;;;;34.04;27.80;101137.72;4424985;32;19953;-69
2022/07/21 00:15:01;;;;;;;;;;;;;;;34.15;27.40;101140.19;4423354;32;20025;-69
2022/07/21 00:17:27;;;;;;;;;;;;;;;33.90;27.73;101146.00;4424080;32;20586;-69
2022/07/21 00:19:53;;;;;;;;;;;;;;;34.02;27.71;101149.25;4425542;32;19993;-69
2022/07/21 00:22:18;;;;;;;;;;;;;;;34.24;27.44;101142.47;4425464;32;19953;-69
2022/07/21 00:24:44;;;;;;;;;;;;;;;34.30;27.26;101143.75;4423679;32;20037;-69
2022/07/21 00:27:09;;;;;;;;;;;;;;;34.25;27.38;101144.78;4422657;32;20525;-69
2022/07/21 00:29:35;;;;;;;;;;;;;;;34.20;27.34;101142.09;4423555;32;20073;-69
2022/07/21 00:32:03;;;;;;;;;;;;;;;34.32;27.32;101140.25;4425158;32;19983;-69
2022/07/21 00:34:29;;;;;;;;;;;;;;;34.15;27.42;101143.88;4425101;32;20329;-69
2022/07/21 00:36:54;;;;;;;;;;;;;;;33.99;27.65;101147.50;4425555;32;20012;-69
2022/07/21 00:39:21;;;;;;;;;;;;;;;34.07;27.41;101146.09;4426821;32;20008;-69
2022/07/21 00:41:47;;;;;;;;;;;;;;;34.05;27.64;101145.91;4427516;32;19991;-69
2022/07/21 00:44:21;;;;;;;;;;;;;;;34.03;27.65;101148.66;4428440;32;20404;-69
2022/07/21 00:46:46;;;;;;;;;;;;;;;34.01;27.61;101142.63;4425952;32;20712;-69
2022/07/21 00:49:12;;;;;;;;;;;;;;;33.76;27.96;101143.91;4427421;32;19989;-69
2022/07/21 00:51:37;;;;;;;;;;;;;;;34.08;27.50;101146.88;4425377;32;19963;-69
2022/07/21 00:54:03;;;;;;;;;;;;;;;34.22;27.42;101151.81;4425202;32;20055;-69
2022/07/21 00:56:28;;;;;;;;;;;;;;;34.08;27.76;101158.56;4427962;32;20000;-69
2022/07/21 00:58:55;;;;;;;;;;;;;;;33.51;28.34;101160.56;4427186;32;19997;-69
2022/07/21 01:01:21;;;;;;;;;;;;;;;33.88;27.96;101151.66;4425989;32;20314;-69
2022/07/21 01:03:46;;;;;;;;;;;;;;;33.82;27.85;101162.75;4425796;32;20307;-69
2022/07/21 01:06:12;;;;;;;;;;;;;;;34.10;27.74;101155.78;4426589;32;20987;-69
2022/07/21 01:08:38;;;;;;;;;;;;;;;33.98;27.72;101166.38;4425620;32;19967;-69
2022/07/21 01:11:04;;;;;;;;;;;;;;;33.98;27.80;101167.16;4426413;32;19989;-69
2022/07/21 01:13:30;;;;;;;;;;;;;;;34.13;27.55;101172.13;4427042;32;19979;-69
2022/07/21 01:15:56;;;;;;;;;;;;;;;34.09;27.46;101175.50;4425606;32;21067;-69
2022/07/21 01:18:21;;;;;;;;;;;;;;;33.99;27.77;101167.97;4423442;32;20303;-69
2022/07/21 01:20:52;;;;;;;;;;;;;;;33.74;28.06;101167.06;4426470;32;20378;-69
2022/07/21 01:23:18;;;;;;;;;;;;;;;34.24;27.46;101172.44;4429535;32;20332;-69
2022/07/21 01:25:47;;;;;;;;;;;;;;;34.41;27.30;101174.69;4426992;32;20000;-69
2022/07/21 01:28:13;;;;;;;;;;;;;;;34.19;27.32;101175.59;4423647;32;20004;-69
2022/07/21 01:30:39;;;;;;;;;;;;;;;34.41;27.10;101182.69;4427127;32;19972;-69
2022/07/21 01:33:04;;;;;;;;;;;;;;;34.43;27.11;101183.63;4425081;32;19979;-69
2022/07/21 01:35:30;;;;;;;;;;;;;;;33.84;27.89;101185.53;4426680;32;20082;-69
2022/07/21 01:37:55;;;;;;;;;;;;;;;34.09;27.57;101190.09;4426134;32;19964;-69
2022/07/21 01:43:06;;;;;;;;;;;;;;;33.99;27.72;101186.25;4426134;32;19996;-69
2022/07/21 01:45:32;;;;;;;;;;;;;;;33.78;27.89;101182.81;4425360;32;19953;-69
2022/07/21 01:47:57;;;;;;;;;;;;;;;33.87;27.88;101187.31;4424403;32;20011;-69
2022/07/21 01:50:26;;;;;;;;;;;;;;;33.66;28.20;101180.94;4424929;32;20030;-69
2022/07/21 01:52:53;;;;;;;;;;;;;;;33.90;27.91;101191.97;4426343;32;19985;-69
2022/07/21 01:55:18;;;;;;;;;;;;;;;33.82;27.99;101191.19;4424820;32;20005;-69
2022/07/21 01:57:44;;;;;;;;;;;;;;;33.61;28.38;101187.78;4424821;32;20397;-69
2022/07/21 02:00:10;;;;;;;;;;;;;;;33.37;28.61;101183.38;4426143;32;19971;-69
2022/07/21 02:02:36;;;;;;;;;;;;;;;33.27;28.96;101185.34;4428895;32;20371;-69
2022/07/21 02:05:02;;;;;;;;;;;;;;;33.37;28.69;101189.22;4424215;32;20003;-69
2022/07/21 02:07:27;;;;;;;;;;;;;;;33.41;28.66;101188.84;4427695;32;19952;-69
2022/07/21 02:09:53;;;;;;;;;;;;;;;33.34;28.80;101190.38;4425269;32;19992;-69
2022/07/21 02:12:18;;;;;;;;;;;;;;;33.14;29.01;101200.16;4428160;32;19990;-69
2022/07/21 02:14:44;;;;;;;;;;;;;;;32.94;29.34;101194.56;4425194;32;19950;-69
2022/07/21 02:17:09;;;;;;;;;;;;;;;33.46;28.78;101197.38;4422181;32;20424;-69
2022/07/21 02:19:35;;;;;;;;;;;;;;;33.46;28.62;101197.38;4424609;32;19990;-69
2022/07/21 02:22:00;;;;;;;;;;;;;;;33.59;28.60;101197.13;4426221;32;19969;-69
2022/07/21 02:24:25;;;;;;;;;;;;;;;33.30;28.82;101195.06;4423444;32;19985;-69
2022/07/21 02:26:51;;;;;;;;;;;;;;;33.47;28.59;101195.22;4425153;32;19983;-69
2022/07/21 02:29:16;;;;;;;;;;;;;;;33.46;28.74;101206.13;4422270;32;19993;-69
2022/07/21 02:31:42;;;;;;;;;;;;;;;33.32;28.77;101207.72;4427851;32;19972;-69
2022/07/21 02:34:07;;;;;;;;;;;;;;;32.99;29.30;101211.06;4424675;32;20007;-69
2022/07/21 02:36:33;;;;;;;;;;;;;;;32.87;29.46;101201.16;4425129;32;19993;-69
2022/07/21 02:39:00;;;;;;;;;;;;;;;33.06;28.96;101205.22;4423005;32;20046;-69
2022/07/21 02:41:25;;;;;;;;;;;;;;;32.53;30.07;101196.50;4425275;32;19984;-69
2022/07/21 02:43:50;;;;;;;;;;;;;;;32.52;30.19;101203.66;4425055;32;19966;-69
2022/07/21 02:46:16;;;;;;;;;;;;;;;32.78;29.72;101202.50;4424665;32;19980;-69
2022/07/21 02:48:41;;;;;;;;;;;;;;;32.61;29.97;101197.25;4422827;32;20051;-69
2022/07/21 02:51:07;;;;;;;;;;;;;;;32.81;29.74;101201.34;4424432;32;20040;-69
2022/07/21 02:53:32;;;;;;;;;;;;;;;32.87;29.67;101201.94;4423111;32;19984;-69
2022/07/21 02:55:58;;;;;;;;;;;;;;;32.54;30.08;101200.97;4424758;32;20010;-69
2022/07/21 02:58:26;;;;;;;;;;;;;;;32.99;29.61;101202.31;4421573;32;21033;-69
2022/07/21 03:00:54;;;;;;;;;;;;;;;33.09;29.46;101212.81;4422148;32;20040;-69
2022/07/21 03:03:20;;;;;;;;;;;;;;;33.32;29.03;101204.78;4423775;32;19957;-69
2022/07/21 03:05:46;;;;;;;;;;;;;;;33.23;29.18;101196.66;4426736;32;20027;-69
2022/07/21 03:08:12;;;;;;;;;;;;;;;33.12;29.39;101202.09;4423949;32;19972;-69
2022/07/21 03:10:38;;;;;;;;;;;;;;;33.11;29.21;101200.56;4426789;32;20332;-69
2022/07/21 03:13:04;;;;;;;;;;;;;;;33.12;29.23;101191.22;4425559;32;20020;-69
2022/07/21 03:15:30;;;;;;;;;;;;;;;32.80;29.52;101199.00;4425360;32;19980;-69
2022/07/21 03:17:56;;;;;;;;;;;;;;;32.89;29.42;101202.16;4424977;32;21041;-69
2022/07/21 03:20:23;;;;;;;;;;;;;;;32.94;29.36;101185.81;4425937;32;19957;-69
2022/07/21 03:22:48;;;;;;;;;;;;;;;32.91;29.61;101192.81;4426970;32;20539;-69
2022/07/21 03:25:14;;;;;;;;;;;;;;;33.03;29.31;101193.94;4425307;32;20011;-69
2022/07/21 03:27:43;;;;;;;;;;;;;;;32.93;29.65;101193.00;4424512;32;20007;-69
2022/07/21 03:30:11;;;;;;;;;;;;;;;33.11;29.30;101188.88;4423459;32;19996;-69
2022/07/21 03:32:36;;;;;;;;;;;;;;;32.83;29.55;101189.87;4424596;32;20323;-69
2022/07/21 03:35:03;;;;;;;;;;;;;;;33.10;29.21;101190.25;4424991;32;20033;-69
2022/07/21 03:37:28;;;;;;;;;;;;;;;33.26;29.19;101194.69;4423970;32;20387;-69
2022/07/21 03:39:54;;;;;;;;;;;;;;;33.41;28.86;101200.50;4425768;32;20031;-70
2022/07/21 03:42:20;;;;;;;;;;;;;;;33.32;28.98;101201.88;4424529;32;20002;-69
2022/07/21 03:44:46;;;;;;;;;;;;;;;33.51;28.88;101198.53;4424331;32;20658;-69
2022/07/21 03:47:11;;;;;;;;;;;;;;;33.33;28.91;101208.47;4425616;32;21463;-69
2022/07/21 03:49:37;;;;;;;;;;;;;;;32.68;29.79;101211.03;4424377;32;19992;-69
2022/07/21 03:52:02;;;;;;;;;;;;;;;32.64;29.86;101207.75;4424646;32;20042;-69
2022/07/21 03:54:28;;;;;;;;;;;;;;;32.45;30.23;101204.44;4424197;32;20010;-69
2022/07/21 03:56:54;;;;;;;;;;;;;;;32.10;30.74;101214.06;4423136;32;19965;-69
2022/07/21 03:59:19;;;;;;;;;;;;;;;32.05;30.85;101212.13;4425043;32;19965;-69
2022/07/21 04:01:46;;;;;;;;;;;;;;;32.11;30.62;101209.81;4426266;32;20008;-69
2022/07/21 04:04:12;;;;;;;;;;;;;;;32.24;30.57;101218.38;4424394;32;20447;-69
2022/07/21 04:06:40;;;;;;;;;;;;;;;32.43;30.02;101212.22;4424177;32;20394;-69
2022/07/21 04:09:12;;;;;;;;;;;;;;;32.33;30.33;101214.09;4426399;32;20437;-69
2022/07/21 04:11:37;;;;;;;;;;;;;;;32.58;30.01;101226.81;4430176;32;19990;-69
2022/07/21 04:14:03;;;;;;;;;;;;;;;32.40;30.15;101225.03;4429836;32;20016;-69
2022/07/21 04:16:28;;;;;;;;;;;;;;;31.99;30.77;101225.28;4428657;32;20040;-69
2022/07/21 04:18:54;;;;;;;;;;;;;;;32.03;30.80;101228.62;4426985;32;20302;-69
2022/07/21 04:21:19;;;;;;;;;;;;;;;31.83;31.06;101232.41;4430817;32;19941;-69
2022/07/21 04:23:45;;;;;;;;;;;;;;;31.92;30.96;101229.75;4428339;32;19964;-69
2022/07/21 04:26:11;;;;;;;;;;;;;;;31.37;31.50;101228.50;4425887;32;19985;-69
2022/07/21 04:28:36;;;;;;;;;;;;;;;31.44;31.40;101233.56;4426257;32;20613;-69
2022/07/21 04:31:02;;;;;;;;;;;;;;;31.52;31.58;101231.47;4428210;32;20014;-69
2022/07/21 04:33:27;;;;;;;;;;;;;;;31.51;31.49;101238.66;4429957;32;20928;-69
2022/07/21 04:35:53;;;;;;;;;;;;;;;31.78;31.06;101245.00;4427587;32;20021;-69
2022/07/21 04:38:18;;;;;;;;;;;;;;;31.80;30.96;101248.88;4424930;32;20019;-69
2022/07/21 04:40:44;;;;;;;;;;;;;;;31.96;30.67;101246.81;4428631;32;19967;-69
2022/07/21 04:43:10;;;;;;;;;;;;;;;32.00;30.71;101255.97;4428628;32;20011;-69
2022/07/21 04:45:35;;;;;;;;;;;;;;;31.79;30.69;101264.00;4428396;32;19957;-69
2022/07/21 04:48:01;;;;;;;;;;;;;;;31.56;31.37;101260.19;4428713;32;20026;-69
2022/07/21 04:50:27;;;;;;;;;;;;;;;31.75;31.85;101260.69;4425140;32;20248;-68
2022/07/21 04:52:53;;;;;;;;;;;;;;;31.32;32.03;101261.41;4424513;32;19993;-69
2022/07/21 04:55:19;;;;;;;;;;;;;;;31.62;32.29;101261.59;4428783;32;20030;-69
2022/07/21 04:57:46;;;;;;;;;;;;;;;31.62;32.19;101269.53;4426575;32;19961;-69
2022/07/21 05:00:12;;;;;;;;;;;;;;;31.78;31.94;101265.38;4424819;32;20004;-68
2022/07/21 05:02:38;;;;;;;;;;;;;;;31.80;32.09;101269.25;4427115;32;19993;-68
2022/07/21 05:05:04;;;;;;;;;;;;;;;31.60;32.69;101261.38;4427103;32;19992;-68
2022/07/21 05:07:29;;;;;;;;;;;;;;;31.84;32.48;101266.78;4430505;32;19961;-69
2022/07/21 05:09:56;;;;;;;;;;;;;;;31.85;32.52;101270.47;4428041;32;20114;-69
2022/07/21 05:12:22;;;;;;;;;;;;;;;31.73;32.76;101267.09;4426413;32;19967;-68
2022/07/21 05:14:47;;;;;;;;;;;;;;;31.63;32.79;101279.84;4426019;32;19958;-68
2022/07/21 05:17:13;;;;;;;;;;;;;;;31.33;33.48;101279.66;4427044;32;20037;-68
2022/07/21 05:19:38;;;;;;;;;;;;;;;31.55;33.17;101276.09;4426366;32;20364;-68
2022/07/21 05:22:03;;;;;;;;;;;;;;;31.73;33.27;101292.50;4426036;32;19990;-68
2022/07/21 05:24:29;;;;;;;;;;;;;;;31.50;33.51;101283.63;4426955;32;20021;-68
2022/07/21 05:26:54;;;;;;;;;;;;;;;31.34;33.95;101295.75;4427909;32;20003;-68
2022/07/21 05:29:20;;;;;;;;;;;;;;;31.48;33.90;101286.38;4425684;32;20008;-68
2022/07/21 05:31:45;;;;;;;;;;;;;;;31.10;34.04;101291.09;4428326;32;20003;-68
2022/07/21 05:34:11;;;;;;;;;;;;;;;31.03;34.73;101288.91;4425495;32;19958;-68
2022/07/21 05:36:36;;;;;;;;;;;;;;;31.22;34.06;101292.34;4425824;32;20007;-67
2022/07/21 05:39:02;;;;;;;;;;;;;;;31.30;34.28;101293.22;4425958;32;19957;-68
2022/07/21 05:41:27;;;;;;;;;;;;;;;31.42;34.10;101300.28;4425633;32;19969;-67
2022/07/21 05:43:53;;;;;;;;;;;;;;;31.35;34.71;101306.03;4427266;32;20045;-67
2022/07/21 05:46:18;;;;;;;;;;;;;;;31.28;34.54;101301.72;4424278;32;20710;-67
2022/07/21 05:48:44;;;;;;;;;;;;;;;31.33;34.23;101308.75;4425501;32;19993;-67
2022/07/21 05:51:09;;;;;;;;;;;;;;;31.37;34.48;101312.84;4424634;32;20044;-67
2022/07/21 05:53:35;;;;;;;;;;;;;;;31.39;34.20;101310.16;4426219;32;19953;-67
2022/07/21 05:56:00;;;;;;;;;;;;;;;31.62;33.63;101316.88;4426671;32;19964;-68
2022/07/21 05:58:26;;;;;;;;;;;;;;;31.57;34.28;101320.72;4424871;32;19961;-68
2022/07/21 06:01:23;;;;;;;;;;;;;;;31.63;33.64;101320.59;4427149;32;19957;-68
2022/07/21 06:03:40;;;;;;;;;;;;;;;31.43;34.37;101315.59;4424740;32;21062;-68
2022/07/21 06:06:06;;;;;;;;;;;;;;;31.57;34.76;101328.69;4424860;32;19992;-67
2022/07/21 06:08:31;;;;;;;;;;;;;;;31.57;34.53;101326.53;4424121;32;20012;-67
2022/07/21 06:10:57;;;;;;;;;;;;;;;31.60;34.29;101322.50;4427131;32;20332;-67
2022/07/21 06:13:22;;;;;;;;;;;;;;;31.57;34.21;101326.53;4425880;32;20260;-67
2022/07/21 06:15:48;;;;;;;;;;;;;;;31.71;34.75;101333.81;4426206;32;19989;-67
2022/07/21 06:18:14;;;;;;;;;;;;;;;31.61;34.37;101335.72;4424000;32;20417;-68
2022/07/21 06:20:40;;;;;;;;;;;;;;;31.25;34.51;101334.03;4425810;32;20009;-68
2022/07/21 06:23:06;;;;;;;;;;;;;;;31.47;35.25;101345.13;4427182;32;19968;-68
2022/07/21 06:25:32;;;;;;;;;;;;;;;31.61;35.00;101337.81;4425085;32;19957;-67
2022/07/21 06:27:57;;;;;;;;;;;;;;;31.62;35.31;101340.16;4425091;32;19975;-67
2022/07/21 06:30:23;;;;;;;;;;;;;;;31.48;34.96;101337.94;4414413;32;19962;-67
2022/07/21 06:32:48;;;;;;;;;;;;;;;31.52;35.48;101339.13;4425643;32;20399;-67
2022/07/21 06:35:14;;;;;;;;;;;;;;;31.55;34.96;101343.03;4424887;32;20014;-68
2022/07/21 06:37:43;;;;;;;;;;;;;;;31.65;35.17;101341.16;4424547;32;19993;-68
2022/07/21 06:40:09;;;;;;;;;;;;;;;31.79;35.20;101339.69;4409256;32;19960;-67
2022/07/21 06:42:36;;;;;;;;;;;;;;;31.93;35.33;101350.66;4422517;32;20512;-67
2022/07/21 06:45:01;;;;;;;;;;;;;;;31.88;35.40;101353.75;4417164;32;20055;-67
2022/07/21 06:47:26;;;;;;;;;;;;;;;31.97;35.53;101353.97;4422163;32;19965;-68
2022/07/21 06:49:52;;;;;;;;;;;;;;;31.83;35.24;101360.50;4413252;32;20391;-68
2022/07/21 06:52:17;;;;;;;;;;;;;;;31.63;35.69;101356.25;4420712;32;20034;-68
2022/07/21 06:54:43;;;;;;;;;;;;;;;31.40;36.03;101366.97;4403537;32;20414;-68
2022/07/21 06:57:08;;;;;;;;;;;;;;;31.57;35.77;101375.25;4415478;32;20027;-68
2022/07/21 06:59:34;;;;;;;;;;;;;;;31.11;36.25;101373.28;4421662;32;20621;-68
2022/07/21 07:02:00;;;;;;;;;;;;;;;31.08;36.34;101374.44;4417094;32;20389;-68
2022/07/21 07:04:25;;;;;;;;;;;;;;;30.48;37.16;101372.41;4418516;32;20457;-68
2022/07/21 07:06:53;;;;;;;;;;;;;;;31.55;36.11;101380.84;4422322;32;21069;-68
2022/07/21 07:09:19;;;;;;;;;;;;;;;30.93;36.33;101380.88;4421597;32;20048;-68
2022/07/21 07:11:46;;;;;;;;;;;;;;;30.96;36.42;101382.66;4421094;32;20386;-69
2022/07/21 07:14:13;;;;;;;;;;;;;;;31.29;35.95;101384.72;4418281;32;19957;-69
2022/07/21 07:16:38;;;;;;;;;;;;;;;31.04;36.57;101385.63;4417636;32;20082;-69
2022/07/21 07:19:04;;;;;;;;;;;;;;;31.27;36.26;101392.44;4416734;32;20016;-69
2022/07/21 07:21:29;;;;;;;;;;;;;;;31.55;35.04;101390.38;4423215;32;19989;-68
2022/07/21 07:23:55;;;;;;;;;;;;;;;31.54;35.13;101382.97;4413697;32;19973;-69
2022/07/21 07:26:20;;;;;;;;;;;;;;;31.99;35.42;101394.16;4419536;32;19961;-69
2022/07/21 07:28:46;;;;;;;;;;;;;;;31.86;34.32;101391.38;4416237;32;20061;-69
2022/07/21 07:31:11;;;;;;;;;;;;;;;31.98;34.36;101393.41;4419811;32;19953;-69
2022/07/21 07:33:37;;;;;;;;;;;;;;;32.14;34.46;101386.31;4416240;32;20046;-70
2022/07/21 07:36:03;;;;;;;;;;;;;;;32.36;33.84;101390.69;4420979;32;21838;-69
2022/07/21 07:38:28;;;;;;;;;;;;;;;32.57;33.93;101389.22;4413775;32;20020;-70
2022/07/21 07:40:53;;;;;;;;;;;;;;;32.36;32.78;101384.88;4420896;32;20020;-69
2022/07/21 07:43:19;;;;;;;;;;;;;;;32.78;32.91;101389.09;4417419;32;20000;-69
2022/07/21 07:45:44;;;;;;;;;;;;;;;33.07;31.63;101390.53;4418473;32;19992;-69
2022/07/21 07:48:10;;;;;;;;;;;;;;;33.05;31.63;101384.50;4421667;32;20039;-70
2022/07/21 07:50:36;;;;;;;;;;;;;;;33.12;31.52;101386.66;4423497;32;19961;-70
2022/07/21 07:53:01;;;;;;;;;;;;;;;33.70;31.82;101391.50;4422710;32;19996;-69
2022/07/21 07:55:27;;;;;;;;;;;;;;;33.65;28.92;101389.59;4421796;32;20605;-70
2022/07/21 07:57:52;;;;;;;;;;;;;;;34.12;28.86;101384.62;4420792;32;19997;-70
2022/07/21 08:00:19;;;;;;;;;;;;;;;34.35;27.54;101402.87;4423360;32;19969;-70
2022/07/21 10:51:13;;;;;;;;;;;;;;;37.94;23.02;101469.19;3936976;32;15806870;-69
2022/07/21 10:53:39;;;;;;;;;;;;;;;37.76;23.21;101472.88;4423017;32;19978;-69
2022/07/21 10:56:05;;;;;;;;;;;;;;;37.44;24.40;101471.03;4421170;32;19992;-69
2022/07/21 11:04:11;;;;;;;;;;;;;;;37.50;23.51;101480.31;3944311;32;15724391;-69
2022/07/21 11:06:37;;;;;;;;;;;;;;;37.50;23.51;101480.31;4420865;32;20088;-68
2022/07/21 11:14:34;;;;;;;;;;;;;;;37.21;24.13;101484.50;3947164;32;15725590;-68
2022/07/21 11:17:02;;;;;;;;;;;;;;;37.21;24.13;101484.50;4419775;32;20185;-68
2022/07/21 11:22:06;;;;;;;;;;;;;;;36.74;24.74;101482.78;3945018;32;15722354;-70
2022/07/21 11:24:32;;;;;;;;;;;;;;;36.59;24.98;101488.03;4417624;32;20400;-69
2022/07/21 11:27:03;;;;;;;;;;;;;;;36.70;24.29;101484.56;4417847;32;20340;-70
2022/07/21 11:29:29;;;;;;;;;;;;;;;36.51;24.39;101487.34;4414393;32;20254;-69
2022/07/21 11:31:56;;;;;;;;;;;;;;;36.62;24.28;101492.69;4416258;32;20028;-69
2022/07/21 11:34:22;;;;;;;;;;;;;;;36.88;24.21;101486.12;4419063;32;20033;-69
2022/07/21 11:36:57;;;;;;;;;;;;;;;36.68;24.49;101490.25;4416253;32;20005;-69
2022/07/21 11:39:23;;;;;;;;;;;;;;;36.58;24.37;101486.47;4418916;32;20012;-69
2022/07/21 11:41:50;;;;;;;;;;;;;;;36.39;24.32;101486.31;4421555;32;21267;-69
2022/07/21 11:44:23;;;;;;;;;;;;;;;36.60;24.38;101489.59;4421052;32;19993;-69
2022/07/21 11:46:49;;;;;;;;;;;;;;;36.69;24.32;101492.59;4414438;32;19965;-69
2022/07/21 11:49:15;;;;;;;;;;;;;;;36.53;24.55;101491.22;4412735;32;20414;-69
2022/07/21 11:51:59;;;;;;;;;;;;;;;36.77;23.74;101489.59;4415854;32;19961;-69
2022/07/21 11:54:27;;;;;;;;;;;;;;;36.76;24.10;101488.03;4415524;32;20590;-69
2022/07/21 11:56:55;;;;;;;;;;;;;;;36.77;23.91;101498.37;4412847;32;19969;-69
2022/07/21 11:59:20;;;;;;;;;;;;;;;36.48;23.94;101495.22;4416330;32;20002;-69
2022/07/21 12:01:48;;;;;;;;;;;;;;;36.70;23.66;101491.22;4416554;32;20005;-70
2022/07/21 12:04:14;;;;;;;;;;;;;;;36.83;23.62;101496.75;4416382;32;19977;-70
2022/07/21 12:06:39;;;;;;;;;;;;;;;37.05;22.73;101483.91;4414284;32;20012;-69
2022/07/21 12:09:06;;;;;;;;;;;;;;;36.91;23.36;101491.56;4412444;32;20288;-70
2022/07/21 12:11:34;;;;;;;;;;;;;;;36.86;23.19;101489.66;4416829;32;20039;-70
2022/07/21 12:14:01;;;;;;;;;;;;;;;37.13;23.13;101498.47;4414163;32;20008;-71
2022/07/21 12:16:26;;;;;;;;;;;;;;;37.23;22.57;101485.44;4414519;32;20513;-69
2022/07/21 12:19:08;;;;;;;;;;;;;;;37.52;22.61;101497.34;4413302;32;19972;-70
2022/07/21 12:21:54;;;;;;;;;;;;;;;37.54;22.59;101483.59;4415469;32;19968;-70
2022/07/21 12:24:21;;;;;;;;;;;;;;;37.56;22.59;101492.56;4416290;32;20055;-70
2022/07/21 12:26:47;;;;;;;;;;;;;;;37.62;22.47;101489.34;4412532;32;20015;-70
2022/07/21 12:29:29;;;;;;;;;;;;;;;38.01;22.11;101487.31;4416070;32;19997;-70
2022/07/21 12:31:55;;;;;;;;;;;;;;;38.17;21.88;101489.38;4406677;32;21518;-70
2022/07/21 12:34:21;;;;;;;;;;;;;;;37.82;22.18;101488.81;4407037;32;19969;-70
2022/07/21 12:36:47;;;;;;;;;;;;;;;37.42;22.51;101493.56;4409759;32;19993;-69
2022/07/21 12:41:49;;;;;;;;;;;;;;;37.68;22.40;101487.69;4437475;31;20103;-70
2022/07/21 12:44:15;;;;;;;;;;;;;;;37.10;23.01;101488.75;3936036;32;15714728;-69
2022/07/21 12:46:43;;;;;;;;;;;;;;;37.24;22.82;101492.84;4423286;32;19961;-68
2022/07/21 12:49:09;;;;;;;;;;;;;;;37.14;23.09;101483.19;4419872;32;19996;-68
2022/07/21 12:51:42;;;;;;;;;;;;;;;37.32;23.02;101490.59;4420378;32;20414;-68
2022/07/21 12:54:07;;;;;;;;;;;;;;;36.96;23.21;101483.88;4420637;32;21575;-68
2022/07/21 12:56:35;;;;;;;;;;;;;;;37.26;22.71;101492.25;4419335;32;19993;-68
2022/07/21 12:59:01;;;;;;;;;;;;;;;37.51;22.35;101486.97;4418072;32;19998;-68
2022/07/21 13:01:28;;;;;;;;;;;;;;;36.73;23.27;101492.94;4416573;32;20354;-68
2022/07/21 13:03:54;;;;;;;;;;;;;;;36.68;23.30;101496.91;4418759;32;19962;-69
2022/07/21 13:06:20;;;;;;;;;;;;;;;37.14;22.69;101485.34;4417888;32;20056;-68
2022/07/21 13:08:49;;;;;;;;;;;;;;;36.99;22.93;101483.41;4415532;32;20397;-69
2022/07/21 13:11:18;;;;;;;;;;;;;;;37.21;22.59;101487.44;4417245;32;20008;-69
2022/07/21 13:13:45;;;;;;;;;;;;;;;37.19;22.77;101498.97;4416490;32;20508;-70
2022/07/21 13:16:11;;;;;;;;;;;;;;;37.16;22.80;101500.19;4415556;32;19989;-70
2022/07/21 13:18:37;;;;;;;;;;;;;;;36.96;23.01;101504.41;4414165;32;19962;-69
2022/07/21 13:21:03;;;;;;;;;;;;;;;37.04;22.90;101499.19;4417941;32;20395;-69
2022/07/21 13:23:29;;;;;;;;;;;;;;;36.71;23.37;101507.44;4415850;32;20004;-70
2022/07/21 13:25:55;;;;;;;;;;;;;;;36.74;22.71;101506.25;4416962;32;20004;-71
2022/07/21 13:28:20;;;;;;;;;;;;;;;35.90;23.79;101499.69;4415433;32;20480;-69
2022/07/21 13:30:46;;;;;;;;;;;;;;;36.19;23.41;101500.75;4416471;32;20384;-69
2022/07/21 13:33:14;;;;;;;;;;;;;;;36.18;23.35;101508.00;4417675;32;20077;-69
2022/07/21 13:35:40;;;;;;;;;;;;;;;36.14;23.48;101509.81;4418045;32;20005;-69
2022/07/21 13:38:05;;;;;;;;;;;;;;;36.02;23.93;101502.91;4418854;32;20334;-69
2022/07/21 13:40:31;;;;;;;;;;;;;;;35.98;24.27;101499.59;4420291;32;20370;-69
2022/07/21 13:42:57;;;;;;;;;;;;;;;36.19;24.11;101505.84;4419864;32;20314;-69
2022/07/21 13:45:23;;;;;;;;;;;;;;;36.08;24.04;101507.13;4414526;32;20287;-69
2022/07/21 13:47:48;;;;;;;;;;;;;;;35.96;24.05;101503.12;4417807;32;20000;-69
2022/07/21 13:50:14;;;;;;;;;;;;;;;36.27;23.47;101494.03;4415234;32;19997;-70
2022/07/21 13:52:40;;;;;;;;;;;;;;;36.54;23.72;101497.87;4408453;32;20001;-70
2022/07/21 13:55:07;;;;;;;;;;;;;;;36.59;23.46;101506.41;4407847;32;20569;-69
2022/07/21 13:57:32;;;;;;;;;;;;;;;36.03;23.96;101502.31;4404516;32;20003;-70
2022/07/21 13:59:58;;;;;;;;;;;;;;;36.47;23.31;101501.69;4410053;32;20386;-70
2022/07/21 14:02:23;;;;;;;;;;;;;;;36.20;23.55;101499.38;4408064;32;20542;-69
2022/07/21 14:04:49;;;;;;;;;;;;;;;36.48;23.43;101501.06;4410002;32;20363;-69
2022/07/21 14:07:15;;;;;;;;;;;;;;;36.40;23.51;101500.38;4407742;32;20513;-69
2022/07/21 14:09:41;;;;;;;;;;;;;;;36.91;23.01;101496.66;4408403;32;20251;-70
2022/07/21 14:12:08;;;;;;;;;;;;;;;37.08;22.94;101508.34;4408780;32;20001;-70
2022/07/21 14:14:33;;;;;;;;;;;;;;;36.92;22.79;101504.84;4404907;32;20035;-68
2022/07/21 14:16:58;;;;;;;;;;;;;;;37.18;22.54;101503.31;4408115;32;19993;-69
2022/07/21 14:19:24;;;;;;;;;;;;;;;37.13;22.58;101511.00;4415855;32;20035;-68
2022/07/21 14:21:49;;;;;;;;;;;;;;;37.05;22.47;101503.69;4408878;32;20020;-67
2022/07/21 14:27:01;;;;;;;;;;;;;;;37.18;22.16;101504.06;4409507;32;19991;-69
2022/07/21 14:29:28;;;;;;;;;;;;;;;37.20;22.31;101509.38;4406621;32;19991;-68
2022/07/21 14:31:53;;;;;;;;;;;;;;;37.27;22.14;101503.38;4409342;32;20080;-68
2022/07/21 14:34:19;;;;;;;;;;;;;;;37.24;22.01;101504.59;4405882;32;20445;-68
2022/07/21 14:36:46;;;;;;;;;;;;;;;36.66;22.66;101502.62;4405894;32;20074;-68
2022/07/21 14:39:12;;;;;;;;;;;;;;;37.27;22.16;101505.56;4404568;32;20489;-69
2022/07/21 14:41:38;;;;;;;;;;;;;;;37.44;22.03;101500.41;4407096;32;20465;-69
2022/07/21 14:44:04;;;;;;;;;;;;;;;37.49;22.04;101498.56;4409450;32;20001;-68
2022/07/21 14:46:31;;;;;;;;;;;;;;;37.16;22.39;101503.94;4405305;32;20845;-69
2022/07/21 14:48:57;;;;;;;;;;;;;;;37.19;22.22;101499.81;4410280;32;20408;-69
2022/07/21 14:51:22;;;;;;;;;;;;;;;37.16;22.25;101506.06;4411634;32;19998;-69
2022/07/21 14:53:49;;;;;;;;;;;;;;;37.21;22.26;101502.88;4409531;32;20015;-68
2022/07/21 14:56:15;;;;;;;;;;;;;;;37.27;22.22;101505.56;4410770;32;20055;-69
2022/07/21 14:58:40;;;;;;;;;;;;;;;37.27;21.95;101499.69;4412945;32;20405;-69
2022/07/21 15:01:06;;;;;;;;;;;;;;;37.20;22.16;101500.56;4416000;32;20005;-68
2022/07/21 15:03:32;;;;;;;;;;;;;;;37.29;21.99;101509.44;4411188;32;20031;-68
2022/07/21 15:05:57;;;;;;;;;;;;;;;37.16;22.33;101495.13;4410823;32;19957;-69
2022/07/21 15:08:23;;;;;;;;;;;;;;;37.10;22.31;101500.47;4411510;32;20340;-69
2022/07/21 15:10:49;;;;;;;;;;;;;;;36.94;22.43;101493.28;4409446;32;19965;-69
2022/07/21 15:13:15;;;;;;;;;;;;;;;37.36;22.18;101490.91;4412396;32;20366;-69
2022/07/21 15:15:41;;;;;;;;;;;;;;;37.29;22.16;101496.91;4410580;32;20016;-70
2022/07/21 15:18:08;;;;;;;;;;;;;;;37.22;22.20;101500.72;4411130;32;20001;-68
2022/07/21 15:20:33;;;;;;;;;;;;;;;37.13;22.10;101492.62;4410418;32;20308;-68
2022/07/21 15:22:59;;;;;;;;;;;;;;;37.03;22.38;101489.62;4411909;32;19995;-68
2022/07/21 15:25:24;;;;;;;;;;;;;;;37.14;22.42;101497.87;4413289;32;20045;-68
2022/07/21 15:27:50;;;;;;;;;;;;;;;37.23;22.22;101490.53;4416352;32;19996;-68
2022/07/21 15:30:17;;;;;;;;;;;;;;;37.15;22.11;101501.59;4413812;32;19998;-69
2022/07/21 15:32:42;;;;;;;;;;;;;;;37.04;22.31;101499.97;4412020;32;20367;-67
2022/07/21 15:35:09;;;;;;;;;;;;;;;36.83;22.69;101493.81;4414305;32;20425;-68
2022/07/21 15:37:35;;;;;;;;;;;;;;;36.52;22.69;101501.41;4412771;32;19992;-68
2022/07/21 15:40:00;;;;;;;;;;;;;;;36.75;22.72;101492.38;4409565;32;20013;-68